Terminal Aerodrome Forecast
Issued by NWS

Home | Current Version | Previous Version | Text Only | Print | Product List | Glossary On
Versions: 1 2 3 4 5 6 7 8 9 10 11 12 13 14 15 16 17 18 19
339
FTUS42 KTAE 250806 AAA
TAFECP
TAF AMD
KECP 250806Z 2508/2606 15004KT 4SM BR SCT010
     FM250900 17003KT 2SM BR BKN002
     FM251400 16011KT P6SM BKN035
     FM260100 17005KT P6SM BKN020=

USA.gov is the U.S. government's official web portal to all federal, state and local government web resources and services.